sensor_id;sensor_type;location;lat;lon;timestamp;temperature;humidity
5192;DHT22;2615;44.524;11.284;2023-02-04T00:03:04;6.80;56.70
5192;DHT22;2615;44.524;11.284;2023-02-04T00:05:33;6.70;57.00
5192;DHT22;2615;44.524;11.284;2023-02-04T00:08:02;6.70;57.70
5192;DHT22;2615;44.524;11.284;2023-02-04T00:10:30;6.60;57.10
5192;DHT22;2615;44.524;11.284;2023-02-04T00:12:59;6.60;57.20
5192;DHT22;2615;44.524;11.284;2023-02-04T00:15:27;6.60;57.30
5192;DHT22;2615;44.524;11.284;2023-02-04T00:17:55;6.60;57.40
5192;DHT22;2615;44.524;11.284;2023-02-04T00:20:23;6.50;57.30
5192;DHT22;2615;44.524;11.284;2023-02-04T00:22:53;6.50;57.40
5192;DHT22;2615;44.524;11.284;2023-02-04T00:25:22;6.40;57.40
5192;DHT22;2615;44.524;11.284;2023-02-04T00:27:50;6.40;57.50
5192;DHT22;2615;44.524;11.284;2023-02-04T00:30:18;6.40;57.60
5192;DHT22;2615;44.524;11.284;2023-02-04T00:32:46;6.40;57.60
5192;DHT22;2615;44.524;11.284;2023-02-04T00:35:15;6.40;57.70
5192;DHT22;2615;44.524;11.284;2023-02-04T00:37:43;6.40;57.70
5192;DHT22;2615;44.524;11.284;2023-02-04T00:40:13;6.40;57.70
5192;DHT22;2615;44.524;11.284;2023-02-04T00:42:41;6.30;57.70
5192;DHT22;2615;44.524;11.284;2023-02-04T00:45:10;6.30;57.80
5192;DHT22;2615;44.524;11.284;2023-02-04T00:47:40;6.30;58.40
5192;DHT22;2615;44.524;11.284;2023-02-04T00:50:08;6.30;58.00
5192;DHT22;2615;44.524;11.284;2023-02-04T00:52:36;6.30;58.00
5192;DHT22;2615;44.524;11.284;2023-02-04T00:55:05;6.20;57.90
5192;DHT22;2615;44.524;11.284;2023-02-04T00:57:37;6.20;58.00
5192;DHT22;2615;44.524;11.284;2023-02-04T01:00:06;6.20;58.00
5192;DHT22;2615;44.524;11.284;2023-02-04T01:02:34;6.20;58.00
5192;DHT22;2615;44.524;11.284;2023-02-04T01:05:03;6.20;58.10
5192;DHT22;2615;44.524;11.284;2023-02-04T01:07:31;6.20;58.10
5192;DHT22;2615;44.524;11.284;2023-02-04T01:09:59;6.10;58.10
5192;DHT22;2615;44.524;11.284;2023-02-04T01:12:27;6.10;58.00
5192;DHT22;2615;44.524;11.284;2023-02-04T01:14:57;6.10;58.10
5192;DHT22;2615;44.524;11.284;2023-02-04T01:17:25;6.10;58.10
5192;DHT22;2615;44.524;11.284;2023-02-04T01:19:53;6.00;58.10
5192;DHT22;2615;44.524;11.284;2023-02-04T01:22:21;6.10;58.10
5192;DHT22;2615;44.524;11.284;2023-02-04T01:24:49;6.00;58.10
5192;DHT22;2615;44.524;11.284;2023-02-04T01:27:17;6.00;58.10
5192;DHT22;2615;44.524;11.284;2023-02-04T01:29:45;6.00;58.10
5192;DHT22;2615;44.524;11.284;2023-02-04T01:32:15;6.00;58.10
5192;DHT22;2615;44.524;11.284;2023-02-04T01:34:43;5.90;58.10
5192;DHT22;2615;44.524;11.284;2023-02-04T01:37:11;5.90;58.30
5192;DHT22;2615;44.524;11.284;2023-02-04T01:39:39;5.90;58.10
5192;DHT22;2615;44.524;11.284;2023-02-04T01:42:07;5.80;58.00
5192;DHT22;2615;44.524;11.284;2023-02-04T01:44:35;5.80;58.10
5192;DHT22;2615;44.524;11.284;2023-02-04T01:47:03;5.80;58.10
5192;DHT22;2615;44.524;11.284;2023-02-04T01:49:33;5.80;58.10
5192;DHT22;2615;44.524;11.284;2023-02-04T01:52:02;5.80;58.10
5192;DHT22;2615;44.524;11.284;2023-02-04T01:54:30;5.80;58.10
5192;DHT22;2615;44.524;11.284;2023-02-04T01:56:59;5.80;58.10
5192;DHT22;2615;44.524;11.284;2023-02-04T01:59:27;5.80;58.20
5192;DHT22;2615;44.524;11.284;2023-02-04T02:01:55;5.80;58.20
5192;DHT22;2615;44.524;11.284;2023-02-04T02:04:27;5.80;58.20
5192;DHT22;2615;44.524;11.284;2023-02-04T02:07:01;5.80;58.20
5192;DHT22;2615;44.524;11.284;2023-02-04T02:09:30;5.80;58.80
5192;DHT22;2615;44.524;11.284;2023-02-04T02:12:00;5.80;58.10
5192;DHT22;2615;44.524;11.284;2023-02-04T02:14:29;5.80;58.10
5192;DHT22;2615;44.524;11.284;2023-02-04T02:16:58;5.80;58.20
5192;DHT22;2615;44.524;11.284;2023-02-04T02:19:29;5.80;58.20
5192;DHT22;2615;44.524;11.284;2023-02-04T02:22:05;5.80;58.20
5192;DHT22;2615;44.524;11.284;2023-02-04T02:24:36;5.80;58.20
5192;DHT22;2615;44.524;11.284;2023-02-04T02:27:06;5.80;58.20
5192;DHT22;2615;44.524;11.284;2023-02-04T02:29:36;5.80;58.20
5192;DHT22;2615;44.524;11.284;2023-02-04T02:32:06;5.80;58.30
5192;DHT22;2615;44.524;11.284;2023-02-04T02:34:35;5.80;58.30
5192;DHT22;2615;44.524;11.284;2023-02-04T02:37:05;5.80;58.30
5192;DHT22;2615;44.524;11.284;2023-02-04T02:39:36;5.80;58.30
5192;DHT22;2615;44.524;11.284;2023-02-04T02:42:05;5.80;58.30
5192;DHT22;2615;44.524;11.284;2023-02-04T02:44:34;5.80;58.30
5192;DHT22;2615;44.524;11.284;2023-02-04T02:47:02;5.80;58.40
5192;DHT22;2615;44.524;11.284;2023-02-04T02:49:31;5.80;58.40
5192;DHT22;2615;44.524;11.284;2023-02-04T02:52:00;5.90;58.50
5192;DHT22;2615;44.524;11.284;2023-02-04T02:54:30;5.90;58.50
5192;DHT22;2615;44.524;11.284;2023-02-04T02:57:01;5.90;58.50
5192;DHT22;2615;44.524;11.284;2023-02-04T02:59:29;5.90;58.60
5192;DHT22;2615;44.524;11.284;2023-02-04T03:02:00;5.90;58.60
5192;DHT22;2615;44.524;11.284;2023-02-04T03:04:30;5.90;58.60
5192;DHT22;2615;44.524;11.284;2023-02-04T03:06:59;6.00;58.70
5192;DHT22;2615;44.524;11.284;2023-02-04T03:09:28;6.00;58.70
5192;DHT22;2615;44.524;11.284;2023-02-04T03:11:56;6.00;58.70
5192;DHT22;2615;44.524;11.284;2023-02-04T03:14:26;6.00;58.70
5192;DHT22;2615;44.524;11.284;2023-02-04T03:16:54;6.00;58.80
5192;DHT22;2615;44.524;11.284;2023-02-04T03:19:23;6.00;58.90
5192;DHT22;2615;44.524;11.284;2023-02-04T03:21:53;6.00;58.80
5192;DHT22;2615;44.524;11.284;2023-02-04T03:24:22;6.00;58.90
5192;DHT22;2615;44.524;11.284;2023-02-04T03:26:51;6.00;58.90
5192;DHT22;2615;44.524;11.284;2023-02-04T03:29:19;6.00;59.00
5192;DHT22;2615;44.524;11.284;2023-02-04T03:31:48;6.00;59.00
5192;DHT22;2615;44.524;11.284;2023-02-04T03:34:16;6.00;59.10
5192;DHT22;2615;44.524;11.284;2023-02-04T03:36:44;6.00;59.10
5192;DHT22;2615;44.524;11.284;2023-02-04T03:39:13;6.00;59.10
5192;DHT22;2615;44.524;11.284;2023-02-04T03:41:41;6.00;59.20
5192;DHT22;2615;44.524;11.284;2023-02-04T03:44:09;6.10;59.20
5192;DHT22;2615;44.524;11.284;2023-02-04T03:46:37;6.10;59.30
5192;DHT22;2615;44.524;11.284;2023-02-04T03:49:06;6.10;59.30
5192;DHT22;2615;44.524;11.284;2023-02-04T03:51:34;6.00;59.30
5192;DHT22;2615;44.524;11.284;2023-02-04T03:54:02;6.00;59.30
5192;DHT22;2615;44.524;11.284;2023-02-04T03:56:31;6.00;59.30
5192;DHT22;2615;44.524;11.284;2023-02-04T03:58:59;6.00;59.30
5192;DHT22;2615;44.524;11.284;2023-02-04T04:01:27;6.00;59.40
5192;DHT22;2615;44.524;11.284;2023-02-04T04:03:55;6.00;59.40
5192;DHT22;2615;44.524;11.284;2023-02-04T04:06:24;6.00;59.50
5192;DHT22;2615;44.524;11.284;2023-02-04T04:08:52;6.00;59.50
5192;DHT22;2615;44.524;11.284;2023-02-04T04:11:21;6.00;59.50
5192;DHT22;2615;44.524;11.284;2023-02-04T04:13:49;6.00;59.60
5192;DHT22;2615;44.524;11.284;2023-02-04T04:16:17;6.00;59.60
5192;DHT22;2615;44.524;11.284;2023-02-04T04:18:46;6.00;59.60
5192;DHT22;2615;44.524;11.284;2023-02-04T04:21:14;6.00;59.60
5192;DHT22;2615;44.524;11.284;2023-02-04T04:23:44;6.00;59.60
5192;DHT22;2615;44.524;11.284;2023-02-04T04:26:12;6.00;59.70
5192;DHT22;2615;44.524;11.284;2023-02-04T04:28:40;6.00;59.70
5192;DHT22;2615;44.524;11.284;2023-02-04T04:31:08;6.00;59.70
5192;DHT22;2615;44.524;11.284;2023-02-04T04:33:36;6.00;59.70
5192;DHT22;2615;44.524;11.284;2023-02-04T04:36:06;6.00;59.70
5192;DHT22;2615;44.524;11.284;2023-02-04T04:38:34;6.00;59.80
5192;DHT22;2615;44.524;11.284;2023-02-04T04:41:04;6.00;59.80
5192;DHT22;2615;44.524;11.284;2023-02-04T04:43:32;6.00;59.80
5192;DHT22;2615;44.524;11.284;2023-02-04T04:46:00;6.00;59.90
5192;DHT22;2615;44.524;11.284;2023-02-04T04:48:28;6.00;59.90
5192;DHT22;2615;44.524;11.284;2023-02-04T04:50:56;6.00;59.90
5192;DHT22;2615;44.524;11.284;2023-02-04T04:53:25;6.00;59.90
5192;DHT22;2615;44.524;11.284;2023-02-04T04:55:53;6.00;59.90
5192;DHT22;2615;44.524;11.284;2023-02-04T04:58:22;5.90;59.90
5192;DHT22;2615;44.524;11.284;2023-02-04T05:00:50;5.90;59.90
5192;DHT22;2615;44.524;11.284;2023-02-04T05:03:19;5.90;59.90
5192;DHT22;2615;44.524;11.284;2023-02-04T05:05:47;5.90;60.00
5192;DHT22;2615;44.524;11.284;2023-02-04T05:08:15;5.90;60.00
5192;DHT22;2615;44.524;11.284;2023-02-04T05:10:44;5.90;60.00
5192;DHT22;2615;44.524;11.284;2023-02-04T05:13:12;5.90;60.10
5192;DHT22;2615;44.524;11.284;2023-02-04T05:15:42;5.90;60.20
5192;DHT22;2615;44.524;11.284;2023-02-04T05:18:10;5.90;60.30
5192;DHT22;2615;44.524;11.284;2023-02-04T05:20:38;6.00;60.40
5192;DHT22;2615;44.524;11.284;2023-02-04T05:23:06;6.00;60.50
5192;DHT22;2615;44.524;11.284;2023-02-04T05:25:34;6.00;60.50
5192;DHT22;2615;44.524;11.284;2023-02-04T05:28:02;6.10;60.50
5192;DHT22;2615;44.524;11.284;2023-02-04T05:30:31;6.10;60.50
5192;DHT22;2615;44.524;11.284;2023-02-04T05:33:01;6.00;60.30
5192;DHT22;2615;44.524;11.284;2023-02-04T05:35:29;6.00;60.30
5192;DHT22;2615;44.524;11.284;2023-02-04T05:37:57;6.00;60.30
5192;DHT22;2615;44.524;11.284;2023-02-04T05:40:25;6.00;60.40
5192;DHT22;2615;44.524;11.284;2023-02-04T05:42:54;6.00;60.40
5192;DHT22;2615;44.524;11.284;2023-02-04T05:45:22;6.00;60.40
5192;DHT22;2615;44.524;11.284;2023-02-04T05:47:50;6.00;60.50
5192;DHT22;2615;44.524;11.284;2023-02-04T05:50:19;6.00;60.50
5192;DHT22;2615;44.524;11.284;2023-02-04T05:52:47;6.00;60.60
5192;DHT22;2615;44.524;11.284;2023-02-04T05:55:16;5.90;60.60
5192;DHT22;2615;44.524;11.284;2023-02-04T05:57:44;6.00;60.60
5192;DHT22;2615;44.524;11.284;2023-02-04T06:00:13;6.00;60.50
5192;DHT22;2615;44.524;11.284;2023-02-04T06:02:41;6.00;60.60
5192;DHT22;2615;44.524;11.284;2023-02-04T06:05:09;6.00;60.60
5192;DHT22;2615;44.524;11.284;2023-02-04T06:07:38;6.00;60.60
5192;DHT22;2615;44.524;11.284;2023-02-04T06:10:08;6.00;60.50
5192;DHT22;2615;44.524;11.284;2023-02-04T06:12:36;6.00;60.50
5192;DHT22;2615;44.524;11.284;2023-02-04T06:15:05;6.00;60.40
5192;DHT22;2615;44.524;11.284;2023-02-04T06:17:33;6.00;61.10
5192;DHT22;2615;44.524;11.284;2023-02-04T06:20:02;6.00;60.40
5192;DHT22;2615;44.524;11.284;2023-02-04T06:22:30;6.00;60.50
5192;DHT22;2615;44.524;11.284;2023-02-04T06:24:59;6.00;60.50
5192;DHT22;2615;44.524;11.284;2023-02-04T06:27:27;5.90;60.40
5192;DHT22;2615;44.524;11.284;2023-02-04T06:32:24;6.00;60.00
5192;DHT22;2615;44.524;11.284;2023-02-04T06:34:52;5.90;60.40
5192;DHT22;2615;44.524;11.284;2023-02-04T06:37:20;6.00;60.60
5192;DHT22;2615;44.524;11.284;2023-02-04T06:39:50;6.00;60.50
5192;DHT22;2615;44.524;11.284;2023-02-04T06:42:21;6.00;60.60
5192;DHT22;2615;44.524;11.284;2023-02-04T06:44:50;6.00;60.60
5192;DHT22;2615;44.524;11.284;2023-02-04T06:47:19;6.00;60.60
5192;DHT22;2615;44.524;11.284;2023-02-04T06:49:47;6.00;60.60
5192;DHT22;2615;44.524;11.284;2023-02-04T06:52:15;6.10;60.60
5192;DHT22;2615;44.524;11.284;2023-02-04T06:54:43;6.10;60.50
5192;DHT22;2615;44.524;11.284;2023-02-04T06:57:11;6.10;60.60
5192;DHT22;2615;44.524;11.284;2023-02-04T06:59:41;6.10;60.50
5192;DHT22;2615;44.524;11.284;2023-02-04T07:02:10;6.20;60.60
5192;DHT22;2615;44.524;11.284;2023-02-04T07:04:38;6.20;60.60
5192;DHT22;2615;44.524;11.284;2023-02-04T07:07:07;6.20;60.60
5192;DHT22;2615;44.524;11.284;2023-02-04T07:09:35;6.20;60.50
5192;DHT22;2615;44.524;11.284;2023-02-04T07:12:06;6.30;60.60
5192;DHT22;2615;44.524;11.284;2023-02-04T07:14:34;6.30;60.60
5192;DHT22;2615;44.524;11.284;2023-02-04T07:17:03;6.40;60.60
5192;DHT22;2615;44.524;11.284;2023-02-04T07:19:31;6.50;60.80
5192;DHT22;2615;44.524;11.284;2023-02-04T07:22:00;6.60;60.70
5192;DHT22;2615;44.524;11.284;2023-02-04T07:24:29;6.70;60.70
5192;DHT22;2615;44.524;11.284;2023-02-04T07:26:57;6.80;60.70
5192;DHT22;2615;44.524;11.284;2023-02-04T07:29:28;6.90;60.70
5192;DHT22;2615;44.524;11.284;2023-02-04T07:31:56;7.00;60.60
5192;DHT22;2615;44.524;11.284;2023-02-04T07:34:25;7.10;60.60
5192;DHT22;2615;44.524;11.284;2023-02-04T07:36:54;7.10;60.50
5192;DHT22;2615;44.524;11.284;2023-02-04T07:39:22;7.20;60.40
5192;DHT22;2615;44.524;11.284;2023-02-04T07:41:50;7.30;60.50
5192;DHT22;2615;44.524;11.284;2023-02-04T07:44:18;7.30;60.40
5192;DHT22;2615;44.524;11.284;2023-02-04T07:46:46;7.40;60.40
5192;DHT22;2615;44.524;11.284;2023-02-04T07:49:14;7.40;60.40
5192;DHT22;2615;44.524;11.284;2023-02-04T07:51:43;7.40;60.40
5192;DHT22;2615;44.524;11.284;2023-02-04T07:54:11;7.50;60.40
5192;DHT22;2615;44.524;11.284;2023-02-04T07:56:40;7.60;60.50
5192;DHT22;2615;44.524;11.284;2023-02-04T07:59:08;7.60;60.50
5192;DHT22;2615;44.524;11.284;2023-02-04T08:01:36;7.70;60.60
5192;DHT22;2615;44.524;11.284;2023-02-04T08:04:04;7.80;60.60
5192;DHT22;2615;44.524;11.284;2023-02-04T08:06:32;7.90;60.60
5192;DHT22;2615;44.524;11.284;2023-02-04T08:09:01;8.00;60.60
5192;DHT22;2615;44.524;11.284;2023-02-04T08:11:30;8.20;60.80
5192;DHT22;2615;44.524;11.284;2023-02-04T08:13:58;8.30;60.80
5192;DHT22;2615;44.524;11.284;2023-02-04T08:16:26;8.50;60.80
5192;DHT22;2615;44.524;11.284;2023-02-04T08:18:54;8.70;60.80
5192;DHT22;2615;44.524;11.284;2023-02-04T08:21:22;8.90;60.80
5192;DHT22;2615;44.524;11.284;2023-02-04T08:23:50;9.00;60.70
5192;DHT22;2615;44.524;11.284;2023-02-04T08:26:19;9.20;60.50
5192;DHT22;2615;44.524;11.284;2023-02-04T08:28:47;9.40;60.40
5192;DHT22;2615;44.524;11.284;2023-02-04T08:31:15;9.60;60.40
5192;DHT22;2615;44.524;11.284;2023-02-04T08:33:44;9.70;60.20
5192;DHT22;2615;44.524;11.284;2023-02-04T08:36:12;9.80;60.00
5192;DHT22;2615;44.524;11.284;2023-02-04T08:38:40;10.00;59.20
5192;DHT22;2615;44.524;11.284;2023-02-04T08:41:10;10.10;59.10
5192;DHT22;2615;44.524;11.284;2023-02-04T08:43:40;10.20;59.00
5192;DHT22;2615;44.524;11.284;2023-02-04T08:46:08;10.30;58.90
5192;DHT22;2615;44.524;11.284;2023-02-04T08:48:36;10.40;58.90
5192;DHT22;2615;44.524;11.284;2023-02-04T08:51:04;10.50;58.80
5192;DHT22;2615;44.524;11.284;2023-02-04T08:53:32;10.60;58.70
5192;DHT22;2615;44.524;11.284;2023-02-04T08:56:01;10.60;58.60
5192;DHT22;2615;44.524;11.284;2023-02-04T08:58:29;10.70;58.60
5192;DHT22;2615;44.524;11.284;2023-02-04T09:00:58;10.70;58.50
5192;DHT22;2615;44.524;11.284;2023-02-04T09:03:26;10.80;58.50
5192;DHT22;2615;44.524;11.284;2023-02-04T09:05:54;10.80;58.40
5192;DHT22;2615;44.524;11.284;2023-02-04T09:08:23;10.90;58.40
5192;DHT22;2615;44.524;11.284;2023-02-04T09:10:51;10.90;58.40
5192;DHT22;2615;44.524;11.284;2023-02-04T09:13:19;10.90;58.20
5192;DHT22;2615;44.524;11.284;2023-02-04T09:15:47;11.00;58.20
5192;DHT22;2615;44.524;11.284;2023-02-04T09:18:16;11.00;58.20
5192;DHT22;2615;44.524;11.284;2023-02-04T09:20:48;11.00;58.10
5192;DHT22;2615;44.524;11.284;2023-02-04T09:23:16;11.10;58.00
5192;DHT22;2615;44.524;11.284;2023-02-04T09:25:45;11.10;58.00
5192;DHT22;2615;44.524;11.284;2023-02-04T09:28:13;11.10;58.00
5192;DHT22;2615;44.524;11.284;2023-02-04T09:30:44;11.20;57.90
5192;DHT22;2615;44.524;11.284;2023-02-04T09:33:14;11.20;57.80
5192;DHT22;2615;44.524;11.284;2023-02-04T09:35:44;11.30;57.90
5192;DHT22;2615;44.524;11.284;2023-02-04T09:38:12;11.40;58.00
5192;DHT22;2615;44.524;11.284;2023-02-04T09:40:45;11.50;58.00
5192;DHT22;2615;44.524;11.284;2023-02-04T09:43:17;11.60;58.00
5192;DHT22;2615;44.524;11.284;2023-02-04T09:45:47;11.80;58.10
5192;DHT22;2615;44.524;11.284;2023-02-04T09:48:16;12.00;58.00
5192;DHT22;2615;44.524;11.284;2023-02-04T09:50:46;12.10;57.90
5192;DHT22;2615;44.524;11.284;2023-02-04T09:53:18;12.20;57.70
5192;DHT22;2615;44.524;11.284;2023-02-04T09:55:49;12.30;57.60
5192;DHT22;2615;44.524;11.284;2023-02-04T09:58:19;12.30;57.60
5192;DHT22;2615;44.524;11.284;2023-02-04T10:00:51;12.40;57.60
5192;DHT22;2615;44.524;11.284;2023-02-04T10:03:23;12.50;57.50
5192;DHT22;2615;44.524;11.284;2023-02-04T10:05:53;12.60;57.40
5192;DHT22;2615;44.524;11.284;2023-02-04T10:08:26;12.80;57.40
5192;DHT22;2615;44.524;11.284;2023-02-04T10:10:55;12.90;57.20
5192;DHT22;2615;44.524;11.284;2023-02-04T10:13:30;12.90;57.00
5192;DHT22;2615;44.524;11.284;2023-02-04T10:15:59;13.00;56.90
5192;DHT22;2615;44.524;11.284;2023-02-04T10:18:30;13.10;56.90
5192;DHT22;2615;44.524;11.284;2023-02-04T10:21:12;13.30;56.80
5192;DHT22;2615;44.524;11.284;2023-02-04T10:23:42;13.50;56.90
5192;DHT22;2615;44.524;11.284;2023-02-04T10:26:11;13.70;56.70
5192;DHT22;2615;44.524;11.284;2023-02-04T10:28:40;13.90;56.60
5192;DHT22;2615;44.524;11.284;2023-02-04T10:31:32;14.10;56.30
5192;DHT22;2615;44.524;11.284;2023-02-04T10:34:06;14.30;55.90
5192;DHT22;2615;44.524;11.284;2023-02-04T10:36:38;14.40;55.70
5192;DHT22;2615;44.524;11.284;2023-02-04T10:39:11;14.60;55.60
5192;DHT22;2615;44.524;11.284;2023-02-04T10:41:45;14.60;55.20
5192;DHT22;2615;44.524;11.284;2023-02-04T10:44:17;14.70;55.20
5192;DHT22;2615;44.524;11.284;2023-02-04T10:46:45;14.90;55.30
5192;DHT22;2615;44.524;11.284;2023-02-04T10:49:19;15.10;55.10
5192;DHT22;2615;44.524;11.284;2023-02-04T10:51:49;15.20;54.80
5192;DHT22;2615;44.524;11.284;2023-02-04T10:54:19;15.40;54.50
5192;DHT22;2615;44.524;11.284;2023-02-04T10:56:56;15.50;54.30
5192;DHT22;2615;44.524;11.284;2023-02-04T10:59:25;15.60;53.90
5192;DHT22;2615;44.524;11.284;2023-02-04T11:01:56;15.70;53.50
5192;DHT22;2615;44.524;11.284;2023-02-04T11:04:25;15.70;53.20
5192;DHT22;2615;44.524;11.284;2023-02-04T11:06:55;15.70;53.00
5192;DHT22;2615;44.524;11.284;2023-02-04T11:09:23;15.70;53.00
5192;DHT22;2615;44.524;11.284;2023-02-04T11:11:52;15.90;53.10
5192;DHT22;2615;44.524;11.284;2023-02-04T11:14:25;16.10;53.00
5192;DHT22;2615;44.524;11.284;2023-02-04T11:16:55;16.30;52.80
5192;DHT22;2615;44.524;11.284;2023-02-04T11:19:35;16.50;52.70
5192;DHT22;2615;44.524;11.284;2023-02-04T11:22:17;16.70;52.20
5192;DHT22;2615;44.524;11.284;2023-02-04T11:24:47;16.90;52.20
5192;DHT22;2615;44.524;11.284;2023-02-04T11:27:21;17.20;52.30
5192;DHT22;2615;44.524;11.284;2023-02-04T11:29:50;17.40;52.00
5192;DHT22;2615;44.524;11.284;2023-02-04T11:32:33;17.60;51.70
5192;DHT22;2615;44.524;11.284;2023-02-04T11:35:21;17.80;51.30
5192;DHT22;2615;44.524;11.284;2023-02-04T11:37:50;17.90;51.00
5192;DHT22;2615;44.524;11.284;2023-02-04T11:40:29;18.10;51.00
5192;DHT22;2615;44.524;11.284;2023-02-04T11:43:02;18.30;50.60
5192;DHT22;2615;44.524;11.284;2023-02-04T11:45:37;18.40;50.20
5192;DHT22;2615;44.524;11.284;2023-02-04T11:48:11;18.50;50.00
5192;DHT22;2615;44.524;11.284;2023-02-04T11:50:40;18.50;49.50
5192;DHT22;2615;44.524;11.284;2023-02-04T11:53:10;18.40;49.20
5192;DHT22;2615;44.524;11.284;2023-02-04T11:55:43;18.30;48.90
5192;DHT22;2615;44.524;11.284;2023-02-04T11:58:15;18.30;49.30
5192;DHT22;2615;44.524;11.284;2023-02-04T12:00:43;18.50;48.90
5192;DHT22;2615;44.524;11.284;2023-02-04T12:03:23;18.70;48.70
5192;DHT22;2615;44.524;11.284;2023-02-04T12:05:52;18.90;48.20
5192;DHT22;2615;44.524;11.284;2023-02-04T12:08:30;19.20;48.20
5192;DHT22;2615;44.524;11.284;2023-02-04T12:11:05;19.40;47.80
5192;DHT22;2615;44.524;11.284;2023-02-04T12:21:10;21.60;46.70
5192;DHT22;2615;44.524;11.284;2023-02-04T12:23:39;22.50;46.80
5192;DHT22;2615;44.524;11.284;2023-02-04T12:26:08;24.50;46.00
5192;DHT22;2615;44.524;11.284;2023-02-04T12:28:36;24.90;44.70
5192;DHT22;2615;44.524;11.284;2023-02-04T12:31:05;25.70;44.70
5192;DHT22;2615;44.524;11.284;2023-02-04T12:33:33;26.80;43.50
5192;DHT22;2615;44.524;11.284;2023-02-04T12:36:01;27.80;42.10
5192;DHT22;2615;44.524;11.284;2023-02-04T12:38:30;28.70;40.50
5192;DHT22;2615;44.524;11.284;2023-02-04T12:40:59;29.40;39.20
5192;DHT22;2615;44.524;11.284;2023-02-04T12:43:27;30.10;37.10
5192;DHT22;2615;44.524;11.284;2023-02-04T12:45:56;30.40;37.10
5192;DHT22;2615;44.524;11.284;2023-02-04T12:48:24;31.00;35.00
5192;DHT22;2615;44.524;11.284;2023-02-04T12:50:52;31.40;35.30
5192;DHT22;2615;44.524;11.284;2023-02-04T12:53:21;31.90;34.10
5192;DHT22;2615;44.524;11.284;2023-02-04T12:55:49;32.30;33.60
5192;DHT22;2615;44.524;11.284;2023-02-04T12:58:18;32.30;33.00
5192;DHT22;2615;44.524;11.284;2023-02-04T13:00:46;32.60;32.20
5192;DHT22;2615;44.524;11.284;2023-02-04T13:03:15;32.70;31.70
5192;DHT22;2615;44.524;11.284;2023-02-04T13:05:43;32.80;31.10
5192;DHT22;2615;44.524;11.284;2023-02-04T13:08:11;33.10;30.60
5192;DHT22;2615;44.524;11.284;2023-02-04T13:10:39;33.20;30.00
5192;DHT22;2615;44.524;11.284;2023-02-04T13:13:08;33.30;29.50
5192;DHT22;2615;44.524;11.284;2023-02-04T13:15:38;33.50;29.20
5192;DHT22;2615;44.524;11.284;2023-02-04T13:18:06;33.60;28.70
5192;DHT22;2615;44.524;11.284;2023-02-04T13:20:35;33.60;28.40
5192;DHT22;2615;44.524;11.284;2023-02-04T13:23:03;33.60;28.20
5192;DHT22;2615;44.524;11.284;2023-02-04T13:25:31;33.50;28.00
5192;DHT22;2615;44.524;11.284;2023-02-04T13:27:59;33.40;27.80
5192;DHT22;2615;44.524;11.284;2023-02-04T13:30:27;33.20;27.70
5192;DHT22;2615;44.524;11.284;2023-02-04T13:32:57;32.90;27.60
5192;DHT22;2615;44.524;11.284;2023-02-04T13:35:25;32.50;27.50
5192;DHT22;2615;44.524;11.284;2023-02-04T13:37:53;31.90;27.60
5192;DHT22;2615;44.524;11.284;2023-02-04T13:40:22;31.20;27.70
5192;DHT22;2615;44.524;11.284;2023-02-04T13:42:50;30.50;27.90
5192;DHT22;2615;44.524;11.284;2023-02-04T13:45:18;29.70;28.00
5192;DHT22;2615;44.524;11.284;2023-02-04T13:47:46;28.90;28.40
5192;DHT22;2615;44.524;11.284;2023-02-04T13:50:16;28.30;28.70
5192;DHT22;2615;44.524;11.284;2023-02-04T13:52:44;27.70;29.00
5192;DHT22;2615;44.524;11.284;2023-02-04T13:55:13;27.30;29.30
5192;DHT22;2615;44.524;11.284;2023-02-04T13:57:41;26.90;29.50
5192;DHT22;2615;44.524;11.284;2023-02-04T14:00:10;26.60;29.90
5192;DHT22;2615;44.524;11.284;2023-02-04T14:02:38;26.30;30.00
5192;DHT22;2615;44.524;11.284;2023-02-04T14:05:07;26.10;30.30
5192;DHT22;2615;44.524;11.284;2023-02-04T14:07:36;25.80;30.40
5192;DHT22;2615;44.524;11.284;2023-02-04T14:10:05;25.40;30.70
5192;DHT22;2615;44.524;11.284;2023-02-04T14:12:33;25.00;31.00
5192;DHT22;2615;44.524;11.284;2023-02-04T14:17:30;24.30;31.10
5192;DHT22;2615;44.524;11.284;2023-02-04T14:19:58;24.10;32.00
5192;DHT22;2615;44.524;11.284;2023-02-04T14:22:26;23.70;32.10
5192;DHT22;2615;44.524;11.284;2023-02-04T14:27:24;23.10;32.20
5192;DHT22;2615;44.524;11.284;2023-02-04T14:29:53;22.80;32.90
5192;DHT22;2615;44.524;11.284;2023-02-04T14:32:21;22.60;33.20
5192;DHT22;2615;44.524;11.284;2023-02-04T14:34:49;22.40;33.50
5192;DHT22;2615;44.524;11.284;2023-02-04T14:37:17;22.20;33.70
5192;DHT22;2615;44.524;11.284;2023-02-04T14:39:45;22.00;33.70
5192;DHT22;2615;44.524;11.284;2023-02-04T14:42:14;21.90;34.00
5192;DHT22;2615;44.524;11.284;2023-02-04T14:44:42;21.90;34.20
5192;DHT22;2615;44.524;11.284;2023-02-04T14:47:10;21.90;34.60
5192;DHT22;2615;44.524;11.284;2023-02-04T14:49:38;21.40;34.90
5192;DHT22;2615;44.524;11.284;2023-02-04T14:52:06;21.00;35.80
5192;DHT22;2615;44.524;11.284;2023-02-04T14:54:38;20.50;36.50
5192;DHT22;2615;44.524;11.284;2023-02-04T14:57:06;20.10;37.20
5192;DHT22;2615;44.524;11.284;2023-02-04T14:59:38;19.70;37.80
5192;DHT22;2615;44.524;11.284;2023-02-04T15:02:06;19.30;38.40
5192;DHT22;2615;44.524;11.284;2023-02-04T15:04:34;19.10;38.90
5192;DHT22;2615;44.524;11.284;2023-02-04T15:07:03;18.70;39.20
5192;DHT22;2615;44.524;11.284;2023-02-04T15:09:31;18.30;39.70
5192;DHT22;2615;44.524;11.284;2023-02-04T15:14:27;17.90;40.40
5192;DHT22;2615;44.524;11.284;2023-02-04T15:16:57;17.70;41.20
5192;DHT22;2615;44.524;11.284;2023-02-04T15:19:25;17.60;41.60
5192;DHT22;2615;44.524;11.284;2023-02-04T15:21:53;17.60;41.80
5192;DHT22;2615;44.524;11.284;2023-02-04T15:24:21;17.50;41.80
5192;DHT22;2615;44.524;11.284;2023-02-04T15:26:51;17.30;41.80
5192;DHT22;2615;44.524;11.284;2023-02-04T15:29:20;17.00;42.00
5192;DHT22;2615;44.524;11.284;2023-02-04T15:34:18;16.30;42.40
5192;DHT22;2615;44.524;11.284;2023-02-04T15:36:46;15.90;43.20
5192;DHT22;2615;44.524;11.284;2023-02-04T15:41:42;15.20;43.50
5192;DHT22;2615;44.524;11.284;2023-02-04T15:44:10;14.90;44.50
5192;DHT22;2615;44.524;11.284;2023-02-04T15:46:38;14.60;44.80
5192;DHT22;2615;44.524;11.284;2023-02-04T15:49:06;14.40;45.20
5192;DHT22;2615;44.524;11.284;2023-02-04T15:51:36;14.20;45.50
5192;DHT22;2615;44.524;11.284;2023-02-04T15:54:04;13.90;45.60
5192;DHT22;2615;44.524;11.284;2023-02-04T15:56:32;13.80;46.10
5192;DHT22;2615;44.524;11.284;2023-02-04T15:59:00;13.60;46.30
5192;DHT22;2615;44.524;11.284;2023-02-04T16:01:28;13.40;46.50
5192;DHT22;2615;44.524;11.284;2023-02-04T16:03:57;13.30;46.90
5192;DHT22;2615;44.524;11.284;2023-02-04T16:06:26;13.10;47.10
5192;DHT22;2615;44.524;11.284;2023-02-04T16:08:55;12.90;47.20
5192;DHT22;2615;44.524;11.284;2023-02-04T16:11:24;12.80;47.50
5192;DHT22;2615;44.524;11.284;2023-02-04T16:13:52;12.70;47.70
5192;DHT22;2615;44.524;11.284;2023-02-04T16:16:20;12.50;48.50
5192;DHT22;2615;44.524;11.284;2023-02-04T16:18:48;12.40;48.10
5192;DHT22;2615;44.524;11.284;2023-02-04T16:21:16;12.30;48.30
5192;DHT22;2615;44.524;11.284;2023-02-04T16:23:44;12.10;48.40
5192;DHT22;2615;44.524;11.284;2023-02-04T16:26:14;12.00;48.70
5192;DHT22;2615;44.524;11.284;2023-02-04T16:28:42;12.00;48.90
5192;DHT22;2615;44.524;11.284;2023-02-04T16:31:13;11.90;49.00